Startpagina
METAR-TAF:

METAR-TAF

Vliegvelden :

Koeweit, Koeweit

breedte: 29-13N, lengte: 047-59E, hoogte: 55 m

Actueel weer

Dit bericht is 1 uur en het 6 minuten geleden gemaakt, om 21:00 UTC
Wind 8 kt uit het noordwesten
Temperatuur 38°C
Vochtigheid 14%
Druk 998 hPa
Zicht 10 km of meer
geen wolken onder 1500 m en geen cumulonimbus

METAR: OKBK 182100Z 32008KT CAVOK 38/06 Q0998 NOSIG

Tijdstip: 01:06 (22:06 UTC)

Verwachting

Dit bericht is 5 uur en het 21 minuten geleden gemaakt, om 16:45 UTC
Verwachting geldig van 18 om 18 UTC tot 19 om 24 UTC
Wind 8 kt uit het noorden met uitschieters tot 18 kt
Zicht 10 km of meer
geen wolken onder 1500 m en geen cumulonimbus

TAF: OKBK 181645Z 1818/1924 35008G18KT CAVOK

Waarnemingen en weersverwachtingen van meer dan 4000 vliegvelden (METAR en TAF).

De beschikbare stations zijn de gele en rode punten op de kaart.

Ga met uw muis naar het station om de naam te zien.

Klik dan om waarnemingen en weersverwachtingen te zien.

kaart wijzigen: klik op de groene knoppen met een zwart kruis om in te zoomen, op de groene knop met een streepje om uit te zoomen of op de groene pijlen voor aangrenzende kaarten.


METAR-TAF: